createdAt,value
2022-10-09T00:01:19.581Z,41
2022-10-09T00:06:03.962Z,46
2022-10-09T00:11:35.872Z,53
2022-10-09T00:15:15.282Z,49
2022-10-09T00:20:00.561Z,56
2022-10-09T00:21:04.919Z,51
2022-10-09T00:22:19.450Z,53
2022-10-09T00:25:43.737Z,56
2022-10-09T00:31:03.438Z,56
2022-10-09T00:36:17.622Z,59
2022-10-09T00:40:49.449Z,63
2022-10-09T00:45:33.754Z,61
2022-10-09T00:51:05.960Z,55
2022-10-09T00:54:33.469Z,59
2022-10-09T00:59:27.700Z,66
2022-10-09T01:00:32.144Z,64
2022-10-09T01:22:29.648Z,58
2022-10-09T01:23:38.997Z,55
2022-10-09T01:28:33.599Z,56
2022-10-09T01:33:17.640Z,59
2022-10-09T01:38:50.132Z,58
2022-10-09T01:42:24.493Z,52
2022-10-09T01:47:28.880Z,57
2022-10-09T01:48:33.053Z,54
2022-10-09T01:59:57.798Z,45
2022-10-09T02:01:07.334Z,45
2022-10-09T02:05:51.770Z,41
2022-10-09T02:11:06.781Z,37
2022-10-09T02:15:36.642Z,34
2022-10-09T02:21:20.779Z,31
2022-10-09T02:29:33.025Z,29
2022-10-09T02:34:57.669Z,29
2022-10-09T02:36:01.838Z,30
2022-10-09T02:39:27.411Z,25
2022-10-09T02:51:49.384Z,42
2022-10-09T02:52:58.870Z,43
2022-10-09T02:57:43.506Z,43
2022-10-09T03:02:58.145Z,42
2022-10-09T03:08:12.665Z,44
2022-10-09T03:13:44.962Z,39
2022-10-09T03:22:42.694Z,34
2022-10-09T03:23:46.946Z,34
2022-10-09T03:32:27.132Z,31
2022-10-09T03:33:31.142Z,30
2022-10-09T03:37:00.940Z,27
2022-10-09T03:41:45.886Z,26
2022-10-09T03:42:50.399Z,30
2022-10-09T03:46:15.823Z,27
2022-10-09T03:54:08.042Z,25
2022-10-09T03:55:17.463Z,25
2022-10-09T04:00:02.033Z,27
2022-10-09T04:04:32.402Z,32
2022-10-09T04:10:04.318Z,27
2022-10-09T04:27:18.470Z,33
2022-10-09T04:28:22.943Z,32
2022-10-09T04:36:32.707Z,29
2022-10-09T04:41:22.290Z,27
2022-10-09T04:42:26.709Z,28
2022-10-09T04:46:05.873Z,29
2022-10-09T04:50:50.722Z,28
2022-10-09T04:51:54.913Z,29
2022-10-09T05:07:42.987Z,25
2022-10-09T05:08:52.297Z,25
2022-10-09T05:13:36.977Z,28
2022-10-09T05:18:06.962Z,26
2022-10-09T05:22:52.223Z,29
2022-10-09T05:28:06.560Z,26
2022-10-09T05:31:22.372Z,33
2022-10-09T05:32:26.722Z,29
2022-10-09T05:33:30.758Z,31
2022-10-09T05:36:45.270Z,32
2022-10-09T05:39:39.938Z,32
2022-10-09T05:44:39.061Z,41
2022-10-09T05:45:48.733Z,31
2022-10-09T05:46:52.862Z,38
2022-10-09T05:50:07.725Z,32
2022-10-09T05:58:18.577Z,38
2022-10-09T05:59:22.773Z,29
2022-10-09T06:02:48.828Z,31
2022-10-09T06:08:03.295Z,30
2022-10-09T06:09:07.341Z,31
2022-10-09T06:10:14.547Z,34
2022-10-09T06:13:12.538Z,31
2022-10-09T06:14:16.558Z,32
2022-10-09T06:17:23.922Z,29
2022-10-09T06:18:45.506Z,27
2022-10-09T06:19:49.490Z,27
2022-10-09T06:21:03.869Z,28
2022-10-09T06:26:02.857Z,33
2022-10-09T06:29:31.005Z,33
2022-10-09T06:34:15.605Z,27
2022-10-09T06:35:19.918Z,35
2022-10-09T06:38:45.506Z,49
2022-10-09T06:44:00.382Z,37
2022-10-09T06:45:04.713Z,38
2022-10-09T06:48:29.693Z,25
2022-10-09T06:54:57.346Z,26
2022-10-09T06:59:42.037Z,32
2022-10-09T07:04:26.928Z,25
2022-10-09T07:08:57.250Z,35
2022-10-09T07:14:29.129Z,25
2022-10-09T07:17:57.149Z,25
2022-10-09T07:22:42.477Z,28
2022-10-09T07:23:46.541Z,27
2022-10-09T07:31:20.070Z,30
2022-10-09T07:34:14.462Z,27
2022-10-09T07:39:29.258Z,34
2022-10-09T07:44:13.578Z,31
2022-10-09T07:45:17.784Z,26
2022-10-09T07:48:40.524Z,26
2022-10-09T07:49:44.660Z,26
2022-10-09T07:50:48.728Z,30
2022-10-09T07:51:52.737Z,33
2022-10-09T07:52:58.764Z,42
2022-10-09T07:54:04.936Z,33
2022-10-09T07:55:09.072Z,28
2022-10-09T07:56:13.256Z,25
2022-10-09T07:57:23.061Z,32
2022-10-09T07:58:27.094Z,32
2022-10-09T07:59:31.094Z,25
2022-10-09T08:00:35.256Z,25
2022-10-09T08:01:39.474Z,25
2022-10-09T08:02:43.668Z,33
2022-10-09T08:03:47.660Z,25
2022-10-09T08:04:51.657Z,25
2022-10-09T08:05:55.736Z,27
2022-10-09T08:07:00.488Z,25
2022-10-09T08:08:04.585Z,41
2022-10-09T08:09:08.654Z,27
2022-10-09T08:10:12.716Z,25
2022-10-09T08:11:16.776Z,25
2022-10-09T08:12:21.488Z,30
2022-10-09T08:13:26.804Z,30
2022-10-09T08:14:30.912Z,27
2022-10-09T08:15:35.716Z,31
2022-10-09T08:16:42.548Z,25
2022-10-09T08:17:46.568Z,29
2022-10-09T08:18:50.588Z,28
2022-10-09T08:19:54.679Z,37
2022-10-09T08:20:58.844Z,36
2022-10-09T08:22:03.678Z,34
2022-10-09T08:23:06.947Z,44
2022-10-09T08:24:11.188Z,44
2022-10-09T08:25:15.244Z,38
2022-10-09T08:26:19.272Z,28
2022-10-09T08:27:23.544Z,39
2022-10-09T08:28:27.665Z,29
2022-10-09T08:29:31.697Z,29
2022-10-09T08:30:36.824Z,33
2022-10-09T08:31:40.997Z,33
2022-10-09T08:32:45.132Z,35
2022-10-09T08:33:49.123Z,41
2022-10-09T08:34:56.184Z,29
2022-10-09T08:36:00.224Z,38
2022-10-09T08:37:06.916Z,35
2022-10-09T08:38:21.373Z,54
2022-10-09T08:39:15.180Z,56
2022-10-09T08:40:19.264Z,50
2022-10-09T08:41:28.359Z,51
2022-10-09T08:42:40.404Z,42
2022-10-09T08:43:44.836Z,39
2022-10-09T08:44:48.950Z,32
2022-10-09T08:45:53.068Z,33
2022-10-09T08:46:57.152Z,30
2022-10-09T08:48:07.098Z,28
2022-10-09T08:49:11.367Z,34
2022-10-09T08:50:16.316Z,35
2022-10-09T08:51:21.922Z,49
2022-10-09T08:52:29.852Z,31
2022-10-09T08:53:39.047Z,39
2022-10-09T08:54:48.248Z,35
2022-10-09T08:55:52.596Z,27
2022-10-09T08:56:56.648Z,33
2022-10-09T08:58:00.748Z,37
2022-10-09T08:59:04.999Z,30
2022-10-09T09:00:09.652Z,32
2022-10-09T09:01:14.626Z,28
2022-10-09T09:02:23.895Z,32
2022-10-09T09:03:38.196Z,35
2022-10-09T09:04:50.065Z,29
2022-10-09T09:06:01.791Z,29
2022-10-09T09:07:08.619Z,26
2022-10-09T09:08:20.692Z,25
2022-10-09T09:09:29.904Z,29
2022-10-09T09:10:44.315Z,28
2022-10-09T09:11:53.536Z,30
2022-10-09T09:13:05.716Z,29
2022-10-09T09:14:17.912Z,42
2022-10-09T09:20:05.341Z,34
2022-10-09T09:23:10.164Z,44
2022-10-09T09:24:39.684Z,38
2022-10-09T09:25:48.924Z,33
2022-10-09T09:28:48.288Z,34
2022-10-09T09:33:20.576Z,33
2022-10-09T09:34:34.816Z,31
2022-10-09T09:35:39.160Z,29
2022-10-09T09:36:51.724Z,34
2022-10-09T09:37:56.252Z,33
2022-10-09T09:40:35.948Z,37
2022-10-09T09:41:32.284Z,34
2022-10-09T09:42:36.840Z,39
2022-10-09T09:43:44.995Z,33
2022-10-09T09:44:49.407Z,35
2022-10-09T09:45:58.880Z,26
2022-10-09T09:47:03.851Z,29
2022-10-09T09:48:15.517Z,40
2022-10-09T09:49:20.167Z,38
2022-10-09T09:50:45.932Z,40
2022-10-09T09:51:29.969Z,40
2022-10-09T09:52:33.696Z,34
2022-10-09T09:53:38.089Z,41
2022-10-09T09:54:45.931Z,40
2022-10-09T09:55:50.380Z,33
2022-10-09T09:57:23.110Z,35
2022-10-09T09:57:59.512Z,39
2022-10-09T09:59:03.747Z,41
2022-10-09T10:00:08.339Z,26
2022-10-09T10:01:15.627Z,30
2022-10-09T10:02:26.267Z,29
2022-10-09T10:03:30.336Z,31
2022-10-09T10:04:34.685Z,36
2022-10-09T10:05:39.299Z,44
2022-10-09T10:06:43.635Z,26
2022-10-09T10:07:48.046Z,25
2022-10-09T10:08:52.287Z,35
2022-10-09T10:10:02.003Z,34
2022-10-09T10:11:07.951Z,31
2022-10-09T10:12:13.060Z,40
2022-10-09T10:13:17.276Z,39
2022-10-09T10:14:24.983Z,42
2022-10-09T10:17:19.021Z,40
2022-10-09T10:18:26.199Z,45
2022-10-09T10:19:30.308Z,35
2022-10-09T10:20:37.821Z,43
2022-10-09T10:21:45.272Z,27
2022-10-09T10:22:51.090Z,27
2022-10-09T10:23:59.280Z,33
2022-10-09T10:25:03.592Z,39
2022-10-09T10:26:10.104Z,35
2022-10-09T10:27:19.376Z,31
2022-10-09T10:28:23.955Z,25
2022-10-09T10:29:33.558Z,51
2022-10-09T10:30:46.619Z,49
2022-10-09T10:31:51.172Z,31
2022-10-09T10:32:58.442Z,41
2022-10-09T10:34:03.039Z,29
2022-10-09T10:35:09.088Z,34
2022-10-09T10:36:16.167Z,58
2022-10-09T10:37:20.320Z,25
2022-10-09T10:38:34.939Z,28
2022-10-09T10:41:34.381Z,30
2022-10-09T10:42:42.275Z,28
2022-10-09T10:43:51.822Z,35
2022-10-09T10:44:56.471Z,50
2022-10-09T10:46:05.657Z,38
2022-10-09T10:47:20.139Z,45
2022-10-09T10:48:24.423Z,51
2022-10-09T10:49:32.957Z,44
2022-10-09T10:50:33.400Z,42
2022-10-09T10:51:39.178Z,37
2022-10-09T10:52:55.612Z,48
2022-10-09T10:54:04.601Z,42
2022-10-09T10:55:21.811Z,28
2022-10-09T10:56:33.947Z,28
2022-10-09T10:57:41.764Z,36
2022-10-09T10:58:56.237Z,29
2022-10-09T11:00:05.819Z,25
2022-10-09T11:01:10.701Z,64
2022-10-09T11:02:32.051Z,73
2022-10-09T11:03:39.409Z,59
2022-10-09T11:04:48.720Z,53
2022-10-09T11:05:53.040Z,41
2022-10-09T11:07:07.896Z,38
2022-10-09T11:08:13.020Z,38
2022-10-09T11:09:25.161Z,51
2022-10-09T11:10:37.536Z,50
2022-10-09T11:11:47.223Z,40
2022-10-09T11:16:34.096Z,36
2022-10-09T11:17:43.651Z,27
2022-10-09T11:18:53.412Z,25
2022-10-09T11:20:05.875Z,39
2022-10-09T11:21:20.475Z,34
2022-10-09T11:22:29.243Z,27
2022-10-09T11:23:43.659Z,44
2022-10-09T11:24:58.721Z,33
2022-10-09T11:26:05.887Z,25
2022-10-09T11:27:20.744Z,35
2022-10-09T11:28:28.286Z,25
2022-10-09T11:29:37.559Z,31
2022-10-09T11:30:44.875Z,42
2022-10-09T11:32:07.807Z,30
2022-10-09T11:33:14.933Z,57
2022-10-09T11:36:13.502Z,63
2022-10-09T11:41:07.268Z,27
2022-10-09T11:46:07.356Z,32
2022-10-09T11:51:05.424Z,30
2022-10-09T11:56:16.367Z,36
2022-10-09T11:57:25.755Z,33
2022-10-09T11:58:30.303Z,35
2022-10-09T11:59:34.784Z,26
2022-10-09T12:00:39.103Z,38
2022-10-09T12:01:43.606Z,46
2022-10-09T12:02:47.929Z,40
2022-10-09T12:03:52.436Z,39
2022-10-09T12:05:00.167Z,37
2022-10-09T12:06:12.447Z,33
2022-10-09T12:07:18.328Z,29
2022-10-09T12:08:32.764Z,29
2022-10-09T12:09:37.075Z,32
2022-10-09T12:10:44.023Z,26
2022-10-09T12:11:54.117Z,25
2022-10-09T12:13:09.396Z,27
2022-10-09T12:14:24.235Z,30
2022-10-09T12:15:28.695Z,26
2022-10-09T12:16:38.793Z,43
2022-10-09T12:17:43.263Z,27
2022-10-09T12:18:51.589Z,38
2022-10-09T12:20:01.163Z,40
2022-10-09T12:21:05.863Z,29
2022-10-09T12:22:11.091Z,49
2022-10-09T12:23:26.504Z,32
2022-10-09T12:24:19.855Z,46
2022-10-09T12:25:28.171Z,38
2022-10-09T12:26:35.647Z,38
2022-10-09T12:27:40.124Z,25
2022-10-09T12:28:44.690Z,33
2022-10-09T12:29:49.191Z,25
2022-10-09T12:30:53.587Z,37
2022-10-09T12:31:58.263Z,38
2022-10-09T12:33:08.704Z,33
2022-10-09T12:34:15.916Z,44
2022-10-09T12:35:21.964Z,38
2022-10-09T12:36:26.685Z,45
2022-10-09T12:37:31.025Z,44
2022-10-09T12:38:35.503Z,52
2022-10-09T12:39:44.104Z,49
2022-10-09T12:40:49.056Z,25
2022-10-09T12:41:53.533Z,36
2022-10-09T12:42:58.193Z,35
2022-10-09T12:44:05.208Z,68
2022-10-09T12:45:09.643Z,53
2022-10-09T12:46:19.712Z,37
2022-10-09T12:47:30.176Z,27
2022-10-09T12:48:34.636Z,40
2022-10-09T12:49:39.172Z,37
2022-10-09T12:50:43.779Z,32
2022-10-09T12:51:50.249Z,31
2022-10-09T12:52:53.119Z,28
2022-10-09T12:54:00.374Z,27
2022-10-09T12:55:05.293Z,28
2022-10-09T12:56:10.631Z,25
2022-10-09T12:57:17.423Z,35
2022-10-09T12:58:21.967Z,27
2022-10-09T13:00:30.070Z,32
2022-10-09T13:01:35.418Z,36
2022-10-09T13:02:39.851Z,39
2022-10-09T13:03:44.247Z,31
2022-10-09T13:04:53.604Z,34
2022-10-09T13:07:48.555Z,32
2022-10-09T13:08:52.522Z,43
2022-10-09T13:10:01.914Z,45
2022-10-09T13:11:09.834Z,40
2022-10-09T13:12:22.582Z,56
2022-10-09T13:17:06.072Z,40
2022-10-09T13:18:20.431Z,57
2022-10-09T13:21:39.613Z,52
2022-10-09T13:22:43.906Z,55
2022-10-09T13:23:55.835Z,71
2022-10-09T13:25:08.199Z,55
2022-10-09T13:28:01.795Z,63
2022-10-09T13:29:07.655Z,64
2022-10-09T13:30:12.084Z,57
2022-10-09T13:31:16.792Z,71
2022-10-09T13:32:22.417Z,54
2022-10-09T13:33:26.714Z,52
2022-10-09T13:34:30.925Z,46
2022-10-09T13:35:35.257Z,58
2022-10-09T13:36:43.798Z,52
2022-10-09T13:37:48.380Z,55
2022-10-09T13:38:52.271Z,52
2022-10-09T13:39:56.498Z,53
2022-10-09T13:41:00.673Z,70
2022-10-09T13:42:05.189Z,62
2022-10-09T13:43:09.489Z,69
2022-10-09T13:44:14.602Z,67
2022-10-09T13:45:19.045Z,65
2022-10-09T13:46:23.460Z,53
2022-10-09T13:47:28.279Z,47
2022-10-09T13:48:33.249Z,48
2022-10-09T13:49:38.591Z,49
2022-10-09T13:50:43.714Z,48
2022-10-09T13:51:48.298Z,44
2022-10-09T13:52:52.509Z,62
2022-10-09T13:53:56.849Z,50
2022-10-09T13:55:01.270Z,52
2022-10-09T13:56:06.502Z,49
2022-10-09T13:57:10.601Z,48
2022-10-09T13:58:14.798Z,41
2022-10-09T13:59:19.221Z,49
2022-10-09T14:00:23.421Z,48
2022-10-09T14:01:28.164Z,48
2022-10-09T14:02:32.972Z,50
2022-10-09T14:03:40.468Z,44
2022-10-09T14:04:45.262Z,55
2022-10-09T14:05:49.503Z,47
2022-10-09T14:07:01.669Z,55
2022-10-09T14:08:06.055Z,41
2022-10-09T14:09:13.360Z,53
2022-10-09T14:10:21.575Z,54
2022-10-09T14:11:22.382Z,46
2022-10-09T14:12:26.683Z,43
2022-10-09T14:13:31.101Z,64
2022-10-09T14:14:37.302Z,51
2022-10-09T14:15:41.937Z,56
2022-10-09T14:16:50.852Z,53
2022-10-09T14:17:55.098Z,45
2022-10-09T14:18:59.345Z,68
2022-10-09T14:20:03.534Z,50
2022-10-09T14:21:12.480Z,50
2022-10-09T14:22:12.954Z,53
2022-10-09T14:23:17.313Z,56
2022-10-09T14:24:21.874Z,54
2022-10-09T14:25:26.578Z,51
2022-10-09T14:26:31.053Z,64
2022-10-09T14:28:39.524Z,52
2022-10-09T14:29:44.166Z,63
2022-10-09T14:30:48.533Z,61
2022-10-09T14:31:53.314Z,49
2022-10-09T14:32:57.633Z,45
2022-10-09T14:34:01.998Z,47
2022-10-09T14:35:06.161Z,47
2022-10-09T14:36:10.841Z,49
2022-10-09T14:37:24.020Z,54
2022-10-09T14:38:20.237Z,45
2022-10-09T14:39:25.541Z,58
2022-10-09T14:40:29.730Z,56
2022-10-09T14:41:37.757Z,51
2022-10-09T14:42:44.029Z,45
2022-10-09T14:43:49.028Z,59
2022-10-09T14:44:55.900Z,53
2022-10-09T14:46:00.206Z,47
2022-10-09T14:47:09.641Z,53
2022-10-09T14:48:13.933Z,59
2022-10-09T14:49:18.546Z,56
2022-10-09T14:50:22.761Z,60
2022-10-09T14:51:27.018Z,57
2022-10-09T14:52:31.645Z,50
2022-10-09T14:53:35.781Z,52
2022-10-09T14:54:39.974Z,57
2022-10-09T14:56:48.943Z,52
2022-10-09T14:57:55.207Z,52
2022-10-09T14:58:59.478Z,53
2022-10-09T15:00:03.821Z,54
2022-10-09T15:01:08.521Z,52
2022-10-09T15:02:15.925Z,55
2022-10-09T15:03:20.569Z,66
2022-10-09T15:04:24.915Z,58
2022-10-09T15:05:29.230Z,68
2022-10-09T15:07:36.501Z,66
2022-10-09T15:08:40.758Z,61
2022-10-09T15:09:45.237Z,71
2022-10-09T15:10:49.545Z,66
2022-10-09T15:11:54.137Z,61
2022-10-09T15:12:58.508Z,54
2022-10-09T15:14:02.922Z,62
2022-10-09T15:15:07.321Z,65
2022-10-09T15:16:11.717Z,61
2022-10-09T15:17:16.338Z,60
2022-10-09T15:18:20.660Z,57
2022-10-09T15:19:25.017Z,57
2022-10-09T15:20:29.997Z,59
2022-10-09T15:21:34.474Z,65
2022-10-09T15:22:38.977Z,59
2022-10-09T15:23:43.262Z,65
2022-10-09T15:24:47.797Z,61
2022-10-09T15:25:51.974Z,63
2022-10-09T15:26:56.206Z,66
2022-10-09T15:28:01.214Z,59
2022-10-09T15:29:05.165Z,65
2022-10-09T15:30:09.602Z,70
2022-10-09T15:31:14.782Z,60
2022-10-09T15:32:26.753Z,67
2022-10-09T15:35:21.577Z,76
2022-10-09T15:40:05.985Z,78
2022-10-09T15:41:10.582Z,89
2022-10-09T15:42:20.565Z,86
2022-10-09T15:45:14.953Z,98
2022-10-09T15:46:19.540Z,103
2022-10-09T15:47:39.555Z,101
2022-10-09T15:48:36.233Z,114
2022-10-09T15:49:40.517Z,105
2022-10-09T15:51:14.981Z,110
2022-10-09T15:52:19.041Z,122
2022-10-09T15:53:24.072Z,120
2022-10-09T15:54:28.405Z,124
2022-10-09T15:55:33.077Z,115
2022-10-09T15:56:40.029Z,126
2022-10-09T15:57:43.757Z,126
2022-10-09T15:58:48.189Z,120
2022-10-09T15:59:52.601Z,120
2022-10-09T16:00:56.840Z,127
2022-10-09T16:02:06.461Z,122
2022-10-09T16:03:13.884Z,129
2022-10-09T16:04:18.117Z,124
2022-10-09T16:05:22.893Z,132
2022-10-09T16:06:27.508Z,133
2022-10-09T16:07:31.726Z,126
2022-10-09T16:09:39.601Z,121
2022-10-09T16:10:47.806Z,126
2022-10-09T16:11:48.401Z,131
2022-10-09T16:12:52.827Z,126
2022-10-09T16:13:56.993Z,125
2022-10-09T16:15:01.329Z,126
2022-10-09T16:16:05.876Z,124
2022-10-09T16:18:14.075Z,125
2022-10-09T16:19:21.389Z,126
2022-10-09T16:20:25.645Z,120
2022-10-09T16:21:29.864Z,122
2022-10-09T16:22:34.442Z,135
2022-10-09T16:23:38.869Z,130
2022-10-09T16:24:43.252Z,127
2022-10-09T16:25:48.097Z,133
2022-10-09T16:26:58.117Z,139
2022-10-09T16:28:03.077Z,130
2022-10-09T16:29:08.196Z,127
2022-10-09T16:30:12.846Z,138
2022-10-09T16:31:17.185Z,137
2022-10-09T16:32:24.494Z,132
2022-10-09T16:33:30.114Z,132
2022-10-09T16:34:34.684Z,132
2022-10-09T16:35:38.926Z,132
2022-10-09T16:36:43.877Z,133
2022-10-09T16:37:48.312Z,136
2022-10-09T16:38:52.729Z,134
2022-10-09T16:39:56.997Z,131
2022-10-09T16:41:02.955Z,128
2022-10-09T16:42:12.752Z,127
2022-10-09T16:43:17.388Z,129
2022-10-09T16:44:21.808Z,127
2022-10-09T16:45:26.208Z,124
2022-10-09T16:46:30.650Z,123
2022-10-09T16:47:34.973Z,128
2022-10-09T16:48:40.064Z,133
2022-10-09T16:49:44.449Z,138
2022-10-09T16:50:49.312Z,135
2022-10-09T16:51:53.824Z,137
2022-10-09T16:52:58.536Z,134
2022-10-09T16:55:06.522Z,135
2022-10-09T16:56:11.355Z,134
2022-10-09T16:57:15.889Z,136
2022-10-09T16:58:23.960Z,132
2022-10-09T16:59:32.776Z,132
2022-10-09T17:00:37.205Z,132
2022-10-09T17:01:43.797Z,131
2022-10-09T17:02:48.705Z,130
2022-10-09T17:03:52.806Z,132
2022-10-09T17:05:02.665Z,131
2022-10-09T17:06:07.572Z,129
2022-10-09T17:07:12.524Z,129
2022-10-09T17:08:16.901Z,127
2022-10-09T17:09:23.076Z,127
2022-10-09T17:10:27.449Z,120
2022-10-09T17:11:31.961Z,123
2022-10-09T17:12:36.740Z,127
2022-10-09T17:13:41.137Z,124
2022-10-09T17:14:53.321Z,120
2022-10-09T17:15:59.728Z,118
2022-10-09T17:17:59.032Z,117
2022-10-09T17:19:03.612Z,121
2022-10-09T17:20:08.280Z,122
2022-10-09T17:21:12.652Z,121
2022-10-09T17:22:17.397Z,124
2022-10-09T17:23:21.716Z,121
2022-10-09T17:24:25.936Z,122
2022-10-09T17:25:30.198Z,121
2022-10-09T17:26:34.483Z,121
2022-10-09T17:27:39.059Z,118
2022-10-09T17:28:43.518Z,120
2022-10-09T17:29:47.976Z,123
2022-10-09T17:30:52.665Z,118
2022-10-09T17:31:58.156Z,123
2022-10-09T17:33:02.673Z,121
2022-10-09T17:34:06.964Z,119
2022-10-09T17:35:11.188Z,117
2022-10-09T17:36:15.524Z,121
2022-10-09T17:37:20.060Z,118
2022-10-09T17:38:24.856Z,117
2022-10-09T17:39:29.272Z,117
2022-10-09T17:40:33.818Z,120
2022-10-09T17:41:42.356Z,119
2022-10-09T17:42:47.081Z,112
2022-10-09T17:43:51.504Z,110
2022-10-09T17:44:59.472Z,114
2022-10-09T17:46:03.844Z,109
2022-10-09T17:47:08.113Z,112
2022-10-09T17:48:12.629Z,110
2022-10-09T17:49:16.689Z,111
2022-10-09T17:50:21.220Z,113
2022-10-09T17:51:25.796Z,112
2022-10-09T17:53:36.864Z,119
2022-10-09T17:54:41.097Z,117
2022-10-09T17:55:45.477Z,116
2022-10-09T17:56:50.084Z,114
2022-10-09T17:57:54.555Z,115
2022-10-09T17:58:59.108Z,117
2022-10-09T18:00:04.716Z,123
2022-10-09T18:01:09.535Z,122
2022-10-09T18:02:13.676Z,122
2022-10-09T18:03:17.980Z,124
2022-10-09T18:08:03.234Z,124
2022-10-09T18:09:07.497Z,118
2022-10-09T18:13:49.260Z,118
2022-10-09T18:18:28.109Z,115
2022-10-09T18:21:24.100Z,118
2022-10-09T18:22:28.967Z,120
2022-10-09T18:23:34.321Z,120
2022-10-09T18:24:39.400Z,119
2022-10-09T18:25:43.664Z,120
2022-10-09T18:28:37.858Z,120
2022-10-09T18:29:42.251Z,119
2022-10-09T18:30:47.216Z,120
2022-10-09T18:31:51.493Z,113
2022-10-09T18:32:55.994Z,121
2022-10-09T18:34:00.396Z,117
2022-10-09T18:35:05.331Z,117
2022-10-09T18:36:10.242Z,119
2022-10-09T18:37:14.988Z,117
2022-10-09T18:38:19.581Z,115
2022-10-09T18:39:24.744Z,120
2022-10-09T18:40:29.171Z,120
2022-10-09T18:41:33.916Z,119
2022-10-09T18:42:38.820Z,114
2022-10-09T18:43:43.237Z,118
2022-10-09T18:44:47.765Z,116
2022-10-09T18:45:54.612Z,123
2022-10-09T18:46:59.316Z,116
2022-10-09T18:48:04.028Z,122
2022-10-09T18:50:12.194Z,118
2022-10-09T18:51:16.896Z,122
2022-10-09T18:52:21.275Z,116
2022-10-09T18:53:25.996Z,117
2022-10-09T18:54:30.981Z,121
2022-10-09T18:55:35.357Z,118
2022-10-09T18:56:39.928Z,117
2022-10-09T18:57:46.716Z,115
2022-10-09T18:58:50.916Z,116
2022-10-09T18:59:55.515Z,115
2022-10-09T19:04:41.472Z,114
2022-10-09T19:09:26.316Z,120
2022-10-09T19:10:44.095Z,116
2022-10-09T19:13:44.111Z,116
2022-10-09T19:17:40.707Z,115
2022-10-09T19:22:36.648Z,112
2022-10-09T19:23:40.959Z,112
2022-10-09T19:29:12.979Z,108
2022-10-09T19:32:40.950Z,115
2022-10-09T19:37:28.776Z,118
2022-10-09T19:38:30.292Z,124
2022-10-09T19:47:24.975Z,127
2022-10-09T19:48:29.185Z,127
2022-10-09T20:04:17.196Z,122
2022-10-09T20:05:26.711Z,119
2022-10-09T20:06:30.921Z,119
2022-10-09T20:09:30.181Z,123
2022-10-09T20:10:34.424Z,124
2022-10-09T20:15:49.123Z,120
2022-10-09T20:21:03.745Z,108
2022-10-09T20:23:58.049Z,113
2022-10-09T20:29:12.523Z,101
2022-10-09T20:33:42.510Z,102
2022-10-09T20:39:15.016Z,101
2022-10-09T20:42:43.371Z,97
2022-10-09T20:47:28.036Z,104
2022-10-09T20:52:37.658Z,102
2022-10-09T20:53:41.932Z,106
2022-10-09T20:57:07.129Z,107
2022-10-09T21:01:52.583Z,115
2022-10-09T21:02:56.891Z,118
2022-10-09T21:06:22.067Z,119
2022-10-09T21:11:37.847Z,116
2022-10-09T21:12:42.412Z,118
2022-10-09T21:16:13.743Z,114
2022-10-09T21:21:02.835Z,114
2022-10-09T21:22:10.130Z,113
2022-10-09T21:30:06.712Z,115
2022-10-09T21:34:51.688Z,120
2022-10-09T21:35:55.859Z,113
2022-10-09T21:39:21.327Z,112
2022-10-09T21:44:35.856Z,120
2022-10-09T21:45:40.077Z,122
2022-10-09T21:49:07.577Z,118
2022-10-09T21:54:27.819Z,118
2022-10-09T21:55:32.046Z,114
2022-10-09T21:58:57.055Z,120
2022-10-09T22:03:41.716Z,117
2022-10-09T22:04:45.850Z,116
2022-10-09T22:09:30.490Z,117
2022-10-09T22:11:53.902Z,117
2022-10-09T22:13:24.174Z,113
2022-10-09T22:14:28.266Z,112
2022-10-09T22:17:57.901Z,111
2022-10-09T22:19:02.108Z,116
2022-10-09T22:28:01.606Z,115
2022-10-09T22:29:08.402Z,108
2022-10-09T22:32:48.111Z,127
2022-10-09T22:33:55.949Z,118
2022-10-09T22:35:00.409Z,116
2022-10-09T22:36:08.890Z,112
2022-10-09T22:37:13.499Z,121
2022-10-09T22:38:18.156Z,117
2022-10-09T22:39:22.466Z,115
2022-10-09T22:40:26.822Z,118
2022-10-09T22:41:31.138Z,118
2022-10-09T22:42:35.559Z,113
2022-10-09T22:43:39.762Z,116
2022-10-09T22:47:36.470Z,113
2022-10-09T22:48:41.355Z,116
2022-10-09T22:49:48.147Z,117
2022-10-09T22:50:52.511Z,124
2022-10-09T22:53:47.162Z,119
2022-10-09T22:54:51.506Z,114
2022-10-09T22:55:56.058Z,113
2022-10-09T22:57:00.487Z,118
2022-10-09T22:58:06.382Z,112
2022-10-09T22:59:10.711Z,114
2022-10-09T23:00:15.106Z,114
2022-10-09T23:01:19.764Z,112
2022-10-09T23:02:26.234Z,109
2022-10-09T23:03:30.598Z,112
2022-10-09T23:04:35.063Z,115
2022-10-09T23:05:39.306Z,115
2022-10-09T23:06:43.535Z,108
2022-10-09T23:07:49.594Z,118
2022-10-09T23:08:57.858Z,120
2022-10-09T23:10:02.060Z,113
2022-10-09T23:11:07.569Z,113
2022-10-09T23:15:52.814Z,113
2022-10-09T23:16:57.098Z,115
2022-10-09T23:18:01.298Z,113
2022-10-09T23:19:06.918Z,110
2022-10-09T23:20:09.838Z,112
2022-10-09T23:21:14.308Z,110
2022-10-09T23:25:10.474Z,112
2022-10-09T23:26:14.787Z,108
2022-10-09T23:27:19.067Z,114
2022-10-09T23:32:03.702Z,108
2022-10-09T23:33:08.153Z,104
2022-10-09T23:36:02.689Z,105
2022-10-09T23:37:07.245Z,104
2022-10-09T23:38:11.709Z,109
2022-10-09T23:39:16.229Z,110
2022-10-09T23:40:20.510Z,106
2022-10-09T23:43:15.142Z,105
2022-10-09T23:44:22.090Z,105
2022-10-09T23:45:23.672Z,105
2022-10-09T23:46:29.100Z,106
2022-10-09T23:47:36.246Z,110
2022-10-09T23:48:40.570Z,116
2022-10-09T23:51:31.916Z,112
2022-10-09T23:52:36.281Z,114
2022-10-09T23:53:40.573Z,110
2022-10-09T23:54:44.836Z,107
2022-10-09T23:55:49.196Z,107
2022-10-09T23:56:53.361Z,101
2022-10-09T23:59:47.953Z,110
